Time;durP1;ratioP1;P1;durP2;ratioP2;P2;SDS_P1;SDS_P2;PMS_P1;PMS_P2;Temp;Humidity;BMP_temperature;BMP_pressure;BME280_temperature;BME280_humidity;BME280_pressure;Samples;Min_cycle;Max_cycle;Signal;HPM_P1;HPM_P2
2021/03/25 00:01:23;;;;;;;4.20;1.33;;;6.00;58.30;;;;;;4972475;28;20046;-84
2021/03/25 00:03:50;;;;;;;1.50;0.83;;;6.10;58.10;;;;;;4970172;28;20041;-84
2021/03/25 00:06:16;;;;;;;3.70;1.50;;;6.10;58.00;;;;;;4971520;28;20518;-84
2021/03/25 00:08:42;;;;;;;4.60;1.30;;;6.10;58.10;;;;;;4984263;28;20023;-84
2021/03/25 00:11:08;;;;;;;2.27;1.10;;;6.10;58.10;;;;;;4973095;28;20038;-84
2021/03/25 00:13:35;;;;;;;2.97;1.17;;;6.10;57.90;;;;;;4972176;28;20034;-84
2021/03/25 00:16:01;;;;;;;2.60;1.03;;;6.10;57.80;;;;;;4970238;28;20178;-84
2021/03/25 00:18:27;;;;;;;2.63;1.23;;;6.00;57.90;;;;;;4971372;28;20378;-84
2021/03/25 00:20:53;;;;;;;2.77;1.37;;;6.00;57.90;;;;;;4971741;28;20027;-84
2021/03/25 00:23:19;;;;;;;3.07;1.60;;;6.10;58.00;;;;;;4959194;28;20047;-84
2021/03/25 00:25:45;;;;;;;4.50;1.93;;;6.00;57.90;;;;;;4971032;28;20518;-84
2021/03/25 00:28:12;;;;;;;3.10;1.60;;;5.90;57.90;;;;;;4969170;28;20027;-84
2021/03/25 00:30:39;;;;;;;2.90;1.60;;;5.80;58.20;;;;;;4973640;28;20023;-84
2021/03/25 00:33:07;;;;;;;7.43;1.50;;;5.80;58.30;;;;;;4981170;28;20027;-84
2021/03/25 00:35:33;;;;;;;6.00;3.07;;;5.70;58.40;;;;;;4974589;28;20069;-84
2021/03/25 00:38:00;;;;;;;6.57;4.00;;;5.70;58.30;;;;;;4971310;28;20059;-84
2021/03/25 00:40:26;;;;;;;4.03;2.23;;;5.70;58.30;;;;;;4972743;28;20042;-84
2021/03/25 00:42:52;;;;;;;3.97;2.07;;;5.60;58.50;;;;;;4971184;28;20031;-83
2021/03/25 00:45:36;;;;;;;4.20;2.00;;;5.50;58.40;;;;;;4991049;28;20031;-84
2021/03/25 00:48:03;;;;;;;2.70;1.63;;;5.50;58.70;;;;;;4971026;28;20058;-83
2021/03/25 00:50:35;;;;;;;3.50;1.73;;;5.50;58.70;;;;;;4968770;28;20029;-84
2021/03/25 00:53:03;;;;;;;3.30;2.15;;;5.60;58.70;;;;;;4970268;28;20479;-83
2021/03/25 00:55:29;;;;;;;5.03;1.50;;;5.50;58.60;;;;;;4985367;28;20030;-83
2021/03/25 00:57:55;;;;;;;1.87;1.10;;;5.50;58.90;;;;;;4969417;28;20023;-83
2021/03/25 01:00:27;;;;;;;3.70;1.63;;;5.60;59.00;;;;;;4973572;28;20022;-84
2021/03/25 01:02:53;;;;;;;2.50;1.30;;;5.60;59.00;;;;;;4970036;28;20019;-84
2021/03/25 01:05:21;;;;;;;2.33;1.50;;;5.60;58.70;;;;;;4973326;28;20467;-84
2021/03/25 01:07:46;;;;;;;3.80;1.87;;;5.70;58.90;;;;;;4965120;28;20507;-83
2021/03/25 01:10:24;;;;;;;2.87;1.50;;;5.60;58.80;;;;;;4964971;28;20062;-83
2021/03/25 01:12:50;;;;;;;2.57;1.67;;;5.60;58.80;;;;;;4967342;28;20035;-83
2021/03/25 01:15:16;;;;;;;2.50;1.40;;;5.60;58.70;;;;;;4965384;28;20077;-83
2021/03/25 01:17:48;;;;;;;2.20;1.20;;;5.60;58.70;;;;;;4964923;28;20031;-84
2021/03/25 01:20:19;;;;;;;5.03;1.52;;;5.60;58.80;;;;;;4964914;28;20066;-83
2021/03/25 01:22:45;;;;;;;1.73;1.10;;;5.50;58.80;;;;;;4968801;28;20038;-83
2021/03/25 01:25:11;;;;;;;3.10;0.90;;;5.50;58.80;;;;;;4962085;28;20031;-83
2021/03/25 01:27:37;;;;;;;6.17;1.70;;;5.50;58.90;;;;;;4967379;28;20051;-84
2021/03/25 01:30:04;;;;;;;3.40;1.00;;;5.50;59.00;;;;;;4970203;28;20055;-82
2021/03/25 01:32:30;;;;;;;3.97;1.10;;;5.50;59.00;;;;;;4981622;28;20028;-83
2021/03/25 01:34:56;;;;;;;5.07;1.77;;;5.50;59.10;;;;;;4963632;28;20036;-82
2021/03/25 01:37:22;;;;;;;2.50;1.47;;;5.40;59.10;;;;;;4963303;28;20034;-82
2021/03/25 01:39:50;;;;;;;2.90;1.77;;;5.40;59.30;;;;;;4969265;28;20026;-83
2021/03/25 01:42:26;;;;;;;3.63;2.13;;;5.30;59.10;;;;;;4981023;28;20035;-82
2021/03/25 01:44:52;;;;;;;7.50;1.97;;;5.30;59.00;;;;;;4977657;28;20034;-82
2021/03/25 01:47:19;;;;;;;2.93;1.40;;;5.30;59.10;;;;;;4971950;28;20075;-82
2021/03/25 01:49:45;;;;;;;5.90;1.17;;;5.30;59.40;;;;;;4971027;28;20057;-82
2021/03/25 01:52:50;;;;;;;2.97;1.67;;;5.30;59.30;;;;;;4960788;28;20079;-82
2021/03/25 01:55:38;;;;;;;5.07;1.80;;;5.30;59.50;;;;;;4980894;28;20024;-82
2021/03/25 01:58:33;;;;;;;6.40;2.03;;;5.20;59.40;;;;;;4971547;28;20029;-83
2021/03/25 02:01:19;;;;;;;2.00;1.40;;;5.10;59.40;;;;;;4970002;28;20487;-83
2021/03/25 02:04:03;;;;;;;3.43;1.40;;;5.10;59.60;;;;;;4965654;28;20105;-83
2021/03/25 02:06:46;;;;;;;2.93;1.40;;;5.10;59.60;;;;;;4978225;28;20043;-83
2021/03/25 02:09:21;;;;;;;2.07;1.13;;;5.10;59.60;;;;;;4973710;28;20023;-82
2021/03/25 02:11:55;;;;;;;3.57;1.43;;;5.10;59.70;;;;;;4984517;28;20023;-82
2021/03/25 02:14:32;;;;;;;3.10;1.53;;;5.10;59.60;;;;;;4968481;28;20391;-82
2021/03/25 02:17:05;;;;;;;3.43;1.30;;;5.10;59.70;;;;;;4981303;28;20046;-82
2021/03/25 02:19:55;;;;;;;3.27;1.20;;;5.20;59.80;;;;;;4971001;28;20438;-82
2021/03/25 02:22:32;;;;;;;2.30;0.80;;;5.20;59.50;;;;;;4967324;28;20035;-82
2021/03/25 02:25:10;;;;;;;3.37;1.67;;;5.10;59.50;;;;;;4969217;28;20030;-83
2021/03/25 02:27:44;;;;;;;2.13;0.93;;;5.10;59.60;;;;;;4958585;28;20578;-82
2021/03/25 02:30:37;;;;;;;3.70;1.20;;;5.10;59.50;;;;;;4963714;28;20054;-82
2021/03/25 02:33:05;;;;;;;2.35;0.70;;;5.10;59.70;;;;;;4953645;28;20050;-83
2021/03/25 02:35:39;;;;;;;4.23;0.70;;;5.00;59.50;;;;;;4966537;28;20038;-82
2021/03/25 02:38:06;;;;;;;4.73;1.70;;;5.10;59.70;;;;;;4975650;28;20054;-83
2021/03/25 02:40:37;;;;;;;7.80;2.90;;;5.00;59.60;;;;;;4967410;28;20916;-83
2021/03/25 02:43:23;;;;;;;10.27;3.57;;;5.10;59.90;;;;;;4966121;28;20022;-83
2021/03/25 02:46:00;;;;;;;2.07;1.00;;;5.20;59.90;;;;;;4984946;28;20054;-83
2021/03/25 02:48:28;;;;;;;3.90;1.33;;;5.20;59.80;;;;;;4959400;28;20041;-82
2021/03/25 02:51:05;;;;;;;2.73;1.30;;;5.20;59.70;;;;;;4968685;28;20383;-83
2021/03/25 02:53:38;;;;;;;5.73;1.60;;;5.50;59.60;;;;;;4966890;28;20019;-82
2021/03/25 02:56:31;;;;;;;5.00;1.58;;;5.50;59.10;;;;;;4966930;28;20055;-82
2021/03/25 02:59:08;;;;;;;7.38;1.77;;;5.50;59.10;;;;;;4983574;28;20027;-82
2021/03/25 03:01:38;;;;;;;2.37;0.97;;;5.50;59.10;;;;;;4961078;28;20034;-82
2021/03/25 03:04:09;;;;;;;2.53;1.20;;;5.40;59.00;;;;;;4970704;28;20501;-82
2021/03/25 03:06:41;;;;;;;2.47;1.27;;;5.40;59.00;;;;;;4969841;28;20047;-82
2021/03/25 03:09:12;;;;;;;5.45;1.70;;;5.50;58.90;;;;;;4965008;28;20027;-82
2021/03/25 03:11:43;;;;;;;9.67;1.60;;;5.50;58.90;;;;;;4976689;28;20502;-82
2021/03/25 03:14:13;;;;;;;7.07;2.20;;;5.40;59.00;;;;;;4964562;28;20114;-82
2021/03/25 03:17:09;;;;;;;2.90;1.13;;;5.30;59.10;;;;;;4964564;28;20042;-82
2021/03/25 03:19:43;;;;;;;3.10;1.37;;;5.30;59.30;;;;;;4940792;28;20039;-82
2021/03/25 03:22:10;;;;;;;1.80;0.90;;;5.30;59.20;;;;;;4967409;28;20118;-82
2021/03/25 03:24:36;;;;;;;3.43;1.17;;;5.30;59.10;;;;;;4966408;28;20547;-82
2021/03/25 03:27:13;;;;;;;2.60;1.10;;;5.40;59.10;;;;;;4969173;28;20498;-82
2021/03/25 03:29:42;;;;;;;2.53;1.23;;;5.40;59.00;;;;;;4960122;28;20035;-82
2021/03/25 03:32:32;;;;;;;4.60;1.27;;;5.30;58.90;;;;;;4979768;28;20030;-82
2021/03/25 03:35:04;;;;;;;2.20;1.40;;;5.40;59.60;;;;;;4966103;28;20031;-82
2021/03/25 03:38:03;;;;;;;3.50;1.97;;;5.30;58.90;;;;;;4970202;28;20444;-83
2021/03/25 03:40:34;;;;;;;1.90;1.17;;;5.20;59.30;;;;;;4981366;28;20365;-82
2021/03/25 03:43:07;;;;;;;2.03;1.00;;;5.10;59.30;;;;;;4968851;28;20031;-82
2021/03/25 03:45:37;;;;;;;3.97;1.73;;;5.20;59.50;;;;;;4964845;28;20027;-82
2021/03/25 03:48:08;;;;;;;1.60;1.03;;;5.20;59.10;;;;;;4980064;28;20038;-82
2021/03/25 03:50:42;;;;;;;1.63;0.80;;;5.20;59.30;;;;;;4960255;28;20106;-82
2021/03/25 03:53:08;;;;;;;1.90;0.80;;;5.20;59.10;;;;;;4979378;28;20440;-82
2021/03/25 03:55:34;;;;;;;3.03;1.37;;;5.20;59.20;;;;;;4968467;28;20038;-83
2021/03/25 03:58:18;;;;;;;1.70;0.87;;;5.20;59.10;;;;;;4968295;28;20071;-83
2021/03/25 04:01:16;;;;;;;4.57;0.90;;;5.20;59.30;;;;;;4967406;28;20093;-83
2021/03/25 04:03:54;;;;;;;1.57;1.10;;;5.20;59.20;;;;;;4956118;28;20228;-83
2021/03/25 04:06:30;;;;;;;3.57;0.90;;;5.30;59.20;;;;;;4967029;28;20054;-83
2021/03/25 04:09:21;;;;;;;7.43;1.20;;;5.20;59.00;;;;;;4966832;28;20034;-83
2021/03/25 04:12:01;;;;;;;4.63;1.50;;;5.20;58.90;;;;;;4968441;28;20034;-83
2021/03/25 04:14:38;;;;;;;2.47;1.50;;;5.10;58.80;;;;;;4980469;28;20042;-83
2021/03/25 04:17:08;;;;;;;2.40;1.20;;;5.10;59.00;;;;;;4967962;28;20034;-83
2021/03/25 04:19:41;;;;;;;2.13;1.17;;;5.10;59.00;;;;;;4971085;28;20119;-82
2021/03/25 04:22:12;;;;;;;5.70;1.83;;;5.00;59.10;;;;;;4989538;28;20038;-82
2021/03/25 04:25:04;;;;;;;2.83;1.33;;;5.00;59.10;;;;;;4973822;28;20038;-82
2021/03/25 04:27:39;;;;;;;3.90;1.50;;;4.90;59.30;;;;;;4975207;28;20027;-83
2021/03/25 04:30:14;;;;;;;3.87;1.30;;;4.80;59.40;;;;;;4975025;28;20034;-83
2021/03/25 04:32:45;;;;;;;3.73;1.73;;;4.80;59.60;;;;;;4969575;28;20371;-83
2021/03/25 04:35:12;;;;;;;3.03;1.50;;;4.90;59.70;;;;;;4972501;28;20035;-83
2021/03/25 04:37:38;;;;;;;5.20;1.87;;;4.90;59.70;;;;;;4974418;28;20027;-82
2021/03/25 04:40:10;;;;;;;3.17;2.33;;;4.90;59.60;;;;;;4974006;28;20035;-82
2021/03/25 04:42:41;;;;;;;5.43;1.95;;;4.90;59.50;;;;;;4966490;28;20031;-83
2021/03/25 04:45:17;;;;;;;3.73;1.50;;;4.80;59.50;;;;;;4958170;28;20035;-84
2021/03/25 04:47:46;;;;;;;6.03;1.30;;;4.70;59.60;;;;;;4973217;28;20098;-83
2021/03/25 04:50:39;;;;;;;3.27;1.87;;;4.70;60.40;;;;;;4970376;28;20031;-83
2021/03/25 04:53:29;;;;;;;4.90;2.20;;;4.60;60.00;;;;;;4982042;28;20031;-84
2021/03/25 04:55:56;;;;;;;3.23;2.33;;;4.60;59.90;;;;;;4989017;28;20798;-83
2021/03/25 04:58:27;;;;;;;3.73;1.80;;;4.60;59.90;;;;;;4973369;28;20495;-84
2021/03/25 05:00:53;;;;;;;4.73;1.97;;;4.60;60.10;;;;;;4970811;28;20031;-82
2021/03/25 05:03:24;;;;;;;4.47;2.43;;;4.50;60.00;;;;;;4957861;28;20101;-83
2021/03/25 05:05:55;;;;;;;4.53;2.37;;;4.40;60.00;;;;;;4970595;28;20166;-82
2021/03/25 05:08:28;;;;;;;4.43;2.40;;;4.40;60.50;;;;;;4975333;28;20034;-82
2021/03/25 05:11:03;;;;;;;;;;;4.50;60.60;;;;;;4981114;28;20125;-83
2021/03/25 05:13:29;;;;;;;6.03;1.90;;;4.50;60.60;;;;;;4968594;28;20018;-82
2021/03/25 05:16:15;;;;;;;5.00;2.60;;;4.60;60.30;;;;;;4963741;28;20113;-83
2021/03/25 05:19:05;;;;;;;6.60;3.93;;;4.60;60.30;;;;;;4973009;28;20034;-82
2021/03/25 05:22:02;;;;;;;8.30;3.03;;;4.50;60.20;;;;;;4965231;28;20034;-82
2021/03/25 05:24:45;;;;;;;11.40;4.40;;;4.60;60.50;;;;;;4966248;28;20507;-83
2021/03/25 05:27:35;;;;;;;10.73;5.05;;;4.70;60.70;;;;;;4975109;28;20447;-82
2021/03/25 05:30:04;;;;;;;8.77;4.40;;;4.70;60.60;;;;;;4955448;28;20506;-83
2021/03/25 05:32:35;;;;;;;12.43;5.73;;;4.70;60.20;;;;;;4954216;28;20221;-83
2021/03/25 05:35:05;;;;;;;9.40;4.17;;;4.60;60.20;;;;;;4970114;28;20019;-84
2021/03/25 05:37:31;;;;;;;7.57;4.40;;;4.60;60.50;;;;;;4963951;28;20113;-81
2021/03/25 05:39:57;;;;;;;7.63;3.80;;;4.60;60.50;;;;;;4971020;28;20117;-81
2021/03/25 05:42:33;;;;;;;4.57;3.10;;;4.60;60.40;;;;;;4969710;28;20028;-81
2021/03/25 05:45:15;;;;;;;8.60;3.90;;;4.50;60.40;;;;;;4980392;28;20078;-81
2021/03/25 05:47:58;;;;;;;8.73;4.40;;;4.60;60.50;;;;;;4971260;28;20031;-82
2021/03/25 05:50:51;;;;;;;10.03;4.17;;;4.60;60.50;;;;;;4973229;28;20121;-82
2021/03/25 05:53:40;;;;;;;8.63;4.03;;;4.60;60.30;;;;;;4977489;28;20031;-82
2021/03/25 05:56:24;;;;;;;7.00;3.40;;;4.60;60.30;;;;;;4971241;28;20037;-82
2021/03/25 05:59:03;;;;;;;5.93;3.10;;;4.60;60.40;;;;;;4971904;28;20380;-81
2021/03/25 06:02:09;;;;;;;8.70;3.17;;;4.60;60.50;;;;;;4971890;28;20092;-81
2021/03/25 06:04:37;;;;;;;9.30;3.27;;;4.70;60.70;;;;;;4956142;28;20534;-82
2021/03/25 06:07:44;;;;;;;5.60;3.37;;;4.70;60.50;;;;;;4967168;28;20047;-81
2021/03/25 06:10:44;;;;;;;26.60;23.80;;;4.80;60.60;;;;;;4963082;28;20142;-82
2021/03/25 06:13:19;;;;;;;10.77;8.47;;;4.80;60.50;;;;;;4954025;28;20044;-82
2021/03/25 06:16:11;;;;;;;13.87;7.37;;;4.70;60.40;;;;;;4971319;28;20023;-82
2021/03/25 06:19:04;;;;;;;16.40;9.20;;;4.80;60.50;;;;;;4970022;28;20046;-83
2021/03/25 06:21:48;;;;;;;36.07;18.63;;;4.70;60.30;;;;;;4959350;28;20620;-82
2021/03/25 06:24:33;;;;;;;40.57;19.30;;;4.80;60.20;;;;;;4966439;28;20113;-82
2021/03/25 06:27:08;;;;;;;25.13;12.97;;;4.70;60.30;;;;;;4969718;28;20093;-83
2021/03/25 06:29:41;;;;;;;30.67;12.30;;;4.70;60.40;;;;;;4972714;28;20126;-83
2021/03/25 06:32:34;;;;;;;26.03;12.27;;;4.70;60.40;;;;;;4970019;28;20023;-83
2021/03/25 06:35:10;;;;;;;30.65;17.50;;;4.70;60.50;;;;;;4960584;28;20483;-83
2021/03/25 06:37:41;;;;;;;37.13;14.63;;;4.70;60.50;;;;;;4958713;28;20447;-82
2021/03/25 06:40:39;;;;;;;23.47;10.20;;;4.70;60.60;;;;;;4965947;28;20151;-83
2021/03/25 06:43:26;;;;;;;19.47;7.87;;;4.70;60.70;;;;;;4946792;28;20043;-83
2021/03/25 06:46:29;;;;;;;13.63;5.93;;;4.80;60.50;;;;;;4968441;28;20474;-83
2021/03/25 06:49:01;;;;;;;14.43;6.88;;;4.90;60.40;;;;;;4967176;28;20434;-83
2021/03/25 06:51:32;;;;;;;11.53;6.57;;;4.90;60.20;;;;;;4973410;28;20093;-83
2021/03/25 06:54:17;;;;;;;14.07;6.73;;;4.90;60.20;;;;;;4966905;28;20070;-83
2021/03/25 06:56:45;;;;;;;20.40;11.83;;;4.90;60.30;;;;;;4972176;28;20069;-83
2021/03/25 06:59:36;;;;;;;28.37;13.90;;;4.90;60.30;;;;;;4970244;28;20484;-83
2021/03/25 07:02:26;;;;;;;33.30;13.73;;;5.00;60.80;;;;;;4978911;28;20066;-83
2021/03/25 07:04:58;;;;;;;30.17;14.03;;;5.10;60.60;;;;;;4949970;28;20035;-83
2021/03/25 07:07:30;;;;;;;28.47;15.40;;;5.20;60.60;;;;;;4969299;28;20050;-84
2021/03/25 07:09:57;;;;;;;23.55;11.48;;;5.30;60.60;;;;;;4958798;28;20515;-83
2021/03/25 07:12:28;;;;;;;19.10;10.87;;;5.30;60.50;;;;;;4954627;28;20039;-83
2021/03/25 07:14:54;;;;;;;17.20;8.30;;;5.30;60.60;;;;;;4979300;28;20121;-83
2021/03/25 07:17:41;;;;;;;20.53;9.13;;;5.40;60.50;;;;;;4963129;28;20035;-83
2021/03/25 07:20:23;;;;;;;12.03;5.97;;;5.40;60.40;;;;;;4964200;28;20125;-83
2021/03/25 07:23:14;;;;;;;16.10;5.87;;;5.50;60.40;;;;;;4969051;28;20029;-83
2021/03/25 07:25:46;;;;;;;8.17;4.77;;;5.50;60.30;;;;;;4970411;28;20030;-83
2021/03/25 07:28:24;;;;;;;8.43;4.28;;;5.60;60.20;;;;;;4973081;28;20034;-83
2021/03/25 07:30:56;;;;;;;14.60;5.43;;;5.70;60.00;;;;;;4970194;28;20032;-83
2021/03/25 07:33:25;;;;;;;8.30;3.58;;;5.70;59.80;;;;;;4964975;28;20038;-83
2021/03/25 07:36:05;;;;;;;9.33;4.87;;;5.60;59.80;;;;;;4968684;28;20395;-83
2021/03/25 07:38:37;;;;;;;7.40;3.60;;;5.70;60.00;;;;;;4962294;28;20027;-83
2021/03/25 07:41:20;;;;;;;7.55;2.75;;;5.80;59.70;;;;;;4963827;28;20405;-83
2021/03/25 07:44:04;;;;;;;8.00;2.53;;;5.90;59.50;;;;;;4976195;28;20042;-83
2021/03/25 07:46:35;;;;;;;12.43;3.30;;;6.00;59.30;;;;;;4967863;28;20054;-83
2021/03/25 07:49:01;;;;;;;7.43;3.07;;;6.20;59.10;;;;;;4968210;28;20031;-83
2021/03/25 07:51:39;;;;;;;7.83;2.73;;;6.40;58.80;;;;;;4970944;28;20033;-83
2021/03/25 07:54:32;;;;;;;9.10;3.20;;;6.60;58.80;;;;;;4967549;28;20503;-83
2021/03/25 07:57:03;;;;;;;5.25;2.08;;;6.90;58.20;;;;;;4969630;28;20042;-83
2021/03/25 07:59:37;;;;;;;6.90;2.40;;;7.00;57.80;;;;;;4961287;28;20032;-83
2021/03/25 08:02:18;;;;;;;5.80;2.70;;;7.20;57.20;;;;;;4973031;28;20127;-83
2021/03/25 08:04:44;;;;;;;6.13;2.40;;;7.20;56.80;;;;;;4970625;28;20031;-83
2021/03/25 08:07:10;;;;;;;4.50;2.53;;;7.40;56.70;;;;;;4973039;28;20054;-83
2021/03/25 08:09:58;;;;;;;6.50;2.40;;;7.60;56.40;;;;;;4974542;28;20035;-83
2021/03/25 08:12:26;;;;;;;7.30;2.70;;;7.80;56.00;;;;;;4987473;28;20039;-83
2021/03/25 08:15:06;;;;;;;8.67;2.73;;;7.90;56.10;;;;;;4959946;28;20402;-83
2021/03/25 08:17:43;;;;;;;7.47;2.60;;;8.10;56.40;;;;;;4974540;28;20037;-83
2021/03/25 08:20:22;;;;;;;5.43;2.10;;;8.30;56.00;;;;;;4973903;28;20479;-83
2021/03/25 08:23:15;;;;;;;6.03;3.00;;;8.50;55.30;;;;;;4972356;28;20035;-83
2021/03/25 08:25:42;;;;;;;7.72;2.83;;;8.80;55.30;;;;;;4966233;28;20153;-83
2021/03/25 08:28:26;;;;;;;9.63;2.67;;;9.00;55.20;;;;;;4963581;28;20023;-83
2021/03/25 08:31:14;;;;;;;5.90;2.90;;;9.10;54.50;;;;;;4974070;28;20089;-83
2021/03/25 08:34:09;;;;;;;10.23;3.30;;;9.20;53.90;;;;;;4976659;28;20027;-83
2021/03/25 08:37:02;;;;;;;4.13;2.10;;;9.40;53.90;;;;;;4969961;28;20043;-83
2021/03/25 08:39:40;;;;;;;13.73;1.73;;;9.50;53.00;;;;;;4964668;28;20034;-83
2021/03/25 08:42:14;;;;;;;6.47;2.10;;;9.60;52.90;;;;;;4981729;28;20527;-83
2021/03/25 08:44:52;;;;;;;6.70;2.10;;;9.90;52.70;;;;;;4974167;28;20030;-83
2021/03/25 08:47:30;;;;;;;12.77;4.80;;;10.10;52.30;;;;;;4972060;28;20037;-84
2021/03/25 08:50:33;;;;;;;8.93;2.83;;;10.40;51.60;;;;;;4969067;28;20031;-84
2021/03/25 08:53:13;;;;;;;5.03;2.28;;;10.50;50.70;;;;;;4969332;28;20471;-83
2021/03/25 08:55:39;;;;;;;4.47;1.60;;;10.60;50.60;;;;;;4969125;28;20467;-83
2021/03/25 08:58:23;;;;;;;5.40;1.60;;;10.70;50.40;;;;;;4972991;28;20030;-84
2021/03/25 09:00:54;;;;;;;18.07;2.20;;;11.00;50.00;;;;;;4973984;28;20023;-84
2021/03/25 09:03:45;;;;;;;4.63;1.40;;;11.20;49.70;;;;;;4976450;28;20019;-84
2021/03/25 09:06:14;;;;;;;5.27;1.30;;;11.30;48.70;;;;;;4974988;28;20170;-83
2021/03/25 09:08:42;;;;;;;7.13;1.27;;;11.50;48.60;;;;;;4973645;28;20514;-83
2021/03/25 09:11:12;;;;;;;8.50;1.30;;;11.60;47.70;;;;;;4964311;28;20094;-83
2021/03/25 09:13:47;;;;;;;2.03;1.17;;;11.80;47.20;;;;;;4966731;28;20030;-84
2021/03/25 09:16:27;;;;;;;3.13;0.97;;;11.80;46.20;;;;;;4960613;28;20391;-84
2021/03/25 09:18:54;;;;;;;4.50;1.40;;;11.90;45.60;;;;;;4972620;28;20035;-83
2021/03/25 09:21:26;;;;;;;4.27;1.37;;;12.00;45.30;;;;;;4973987;28;20490;-83
2021/03/25 09:24:03;;;;;;;3.73;1.17;;;12.00;45.20;;;;;;4973715;28;20026;-84
2021/03/25 09:26:29;;;;;;;3.80;1.50;;;12.20;44.90;;;;;;4964585;28;20034;-84
2021/03/25 09:29:07;;;;;;;4.90;1.10;;;12.20;44.60;;;;;;4965127;28;20395;-84
2021/03/25 09:31:41;;;;;;;7.30;2.03;;;12.40;44.30;;;;;;4971696;28;20034;-84
2021/03/25 09:34:10;;;;;;;4.97;1.70;;;12.60;43.70;;;;;;4969460;28;20042;-84
2021/03/25 09:36:35;;;;;;;3.20;1.43;;;12.80;43.50;;;;;;4964668;28;20078;-84
2021/03/25 09:39:04;;;;;;;3.27;1.27;;;12.80;42.50;;;;;;4970785;28;20522;-84
2021/03/25 09:41:30;;;;;;;6.07;1.70;;;12.80;42.20;;;;;;4973012;28;20026;-84
2021/03/25 09:44:37;;;;;;;3.40;1.30;;;12.90;42.00;;;;;;4966856;28;20027;-84
2021/03/25 09:47:03;;;;;;;4.60;1.60;;;13.10;41.60;;;;;;4966003;28;20387;-84
2021/03/25 09:49:46;;;;;;;4.40;1.20;;;13.10;41.60;;;;;;4971637;28;20030;-84
2021/03/25 09:52:15;;;;;;;;;;;13.10;41.40;;;;;;4960828;28;20023;-84
2021/03/25 09:54:41;;;;;;;6.77;1.17;;;13.20;41.90;;;;;;4971974;28;19972;-84
2021/03/25 09:57:37;;;;;;;2.90;1.00;;;13.20;41.80;;;;;;4972313;28;20035;-84
2021/03/25 10:00:02;;;;;;;5.33;1.43;;;13.20;41.10;;;;;;4967806;28;20150;-84
2021/03/25 10:02:40;;;;;;;6.37;1.77;;;13.30;41.50;;;;;;4964680;28;20118;-84
2021/03/25 10:05:28;;;;;;;3.33;1.60;;;13.50;41.50;;;;;;4969974;28;20054;-84
2021/03/25 10:07:55;;;;;;;5.47;1.30;;;13.70;41.50;;;;;;4971678;28;20071;-84
2021/03/25 10:10:32;;;;;;;5.83;1.20;;;13.80;41.00;;;;;;4960361;28;20038;-85
2021/03/25 10:13:01;;;;;;;6.10;1.23;;;13.80;41.00;;;;;;4970615;28;20030;-83
2021/03/25 10:15:42;;;;;;;2.97;1.00;;;14.00;40.90;;;;;;4972631;28;20060;-85
2021/03/25 10:18:12;;;;;;;5.17;1.23;;;14.10;40.60;;;;;;4966499;28;20505;-85
2021/03/25 10:20:47;;;;;;;4.67;1.37;;;14.30;40.50;;;;;;4970779;28;20058;-85
2021/03/25 10:23:26;;;;;;;3.03;1.00;;;14.40;40.50;;;;;;4961862;28;20066;-85
2021/03/25 10:26:11;;;;;;;2.97;1.07;;;14.70;40.20;;;;;;4968631;28;20544;-85
2021/03/25 10:28:44;;;;;;;3.73;1.17;;;14.80;39.90;;;;;;4970514;28;20562;-85
2021/03/25 10:31:18;;;;;;;3.17;1.10;;;15.00;39.40;;;;;;4964754;28;20019;-85
2021/03/25 10:33:45;;;;;;;4.53;1.30;;;15.00;39.20;;;;;;4970760;28;20467;-85
2021/03/25 10:36:17;;;;;;;4.57;1.47;;;15.20;39.50;;;;;;4963451;28;20034;-85
2021/03/25 10:38:45;;;;;;;;;;;15.40;39.00;;;;;;4972045;28;20035;-85
2021/03/25 10:41:24;;;;;;;2.63;1.20;;;15.30;39.20;;;;;;4968856;28;19949;-85
2021/03/25 10:43:51;;;;;;;2.63;0.90;;;15.50;38.90;;;;;;4962537;28;20048;-85
2021/03/25 10:46:36;;;;;;;3.00;0.77;;;15.80;38.30;;;;;;4968835;28;20089;-85
2021/03/25 10:49:05;;;;;;;4.20;0.95;;;15.90;37.50;;;;;;4970195;28;20022;-85
2021/03/25 10:51:38;;;;;;;3.13;0.82;;;16.00;37.50;;;;;;4973428;28;20482;-85
2021/03/25 10:54:27;;;;;;;2.78;1.05;;;16.20;37.10;;;;;;4960744;28;20023;-85
2021/03/25 10:57:18;;;;;;;5.82;1.38;;;16.40;36.80;;;;;;4987271;28;20054;-85
2021/03/25 10:59:48;;;;;;;2.97;1.20;;;16.40;36.30;;;;;;4958818;28;20027;-85
2021/03/25 11:02:25;;;;;;;3.67;1.58;;;16.50;36.60;;;;;;4968962;28;20118;-84
2021/03/25 11:05:15;;;;;;;6.00;1.38;;;16.50;36.40;;;;;;4961759;28;20027;-85
2021/03/25 11:07:44;;;;;;;4.55;1.20;;;16.50;36.50;;;;;;4954025;29;20048;-85
2021/03/25 11:10:21;;;;;;;7.63;1.63;;;16.60;36.50;;;;;;4963428;28;20024;-85
2021/03/25 11:13:04;;;;;;;1.65;1.02;;;16.80;36.20;;;;;;4968700;28;20114;-85
2021/03/25 11:15:46;;;;;;;6.15;1.45;;;17.00;36.20;;;;;;4964199;28;20056;-85
2021/03/25 11:18:20;;;;;;;5.72;1.67;;;17.10;36.20;;;;;;4968854;28;20031;-85
2021/03/25 11:20:46;;;;;;;3.25;1.35;;;17.20;35.90;;;;;;4968450;28;20067;-85
2021/03/25 11:23:18;;;;;;;4.30;1.40;;;17.20;35.70;;;;;;4972402;28;20050;-85
2021/03/25 11:25:44;;;;;;;5.55;1.23;;;17.30;35.80;;;;;;4977942;28;20053;-85
2021/03/25 11:28:17;;;;;;;5.10;1.40;;;17.40;35.80;;;;;;4968792;28;20450;-85
2021/03/25 11:30:46;;;;;;;8.90;1.60;;;17.40;35.20;;;;;;4975663;28;20022;-85
2021/03/25 11:33:29;;;;;;;5.10;1.98;;;17.40;36.00;;;;;;4959742;28;20526;-84
2021/03/25 11:35:57;;;;;;;6.07;1.80;;;17.50;35.60;;;;;;4969446;28;20023;-85
2021/03/25 11:38:25;;;;;;;6.30;1.77;;;17.60;35.70;;;;;;4967360;28;20031;-85
2021/03/25 11:40:57;;;;;;;4.82;1.70;;;17.70;36.10;;;;;;4960934;28;20070;-85
2021/03/25 11:43:45;;;;;;;5.67;1.63;;;17.80;35.20;;;;;;4967834;28;20046;-85
2021/03/25 11:46:26;;;;;;;4.68;2.00;;;18.00;35.10;;;;;;4976253;28;20340;-85
2021/03/25 11:49:16;;;;;;;9.80;1.88;;;18.00;34.40;;;;;;4960450;28;20023;-85
2021/03/25 11:51:45;;;;;;;2.00;1.40;;;17.90;34.30;;;;;;4972847;28;20026;-85
2021/03/25 11:54:27;;;;;;;5.63;1.90;;;18.00;34.30;;;;;;4960750;28;20106;-84
2021/03/25 11:56:56;;;;;;;4.70;1.70;;;18.00;33.90;;;;;;4976319;28;20065;-85
2021/03/25 11:59:26;;;;;;;4.38;2.08;;;18.00;34.10;;;;;;4976286;28;20025;-84
2021/03/25 12:02:12;;;;;;;2.88;1.95;;;18.00;33.80;;;;;;4973319;28;20031;-85
2021/03/25 12:04:38;;;;;;;4.43;2.00;;;18.10;34.10;;;;;;4958821;28;20082;-85
2021/03/25 12:07:04;;;;;;;5.70;2.20;;;18.30;34.20;;;;;;4962394;28;20043;-85
2021/03/25 12:09:33;;;;;;;7.93;2.40;;;18.40;34.20;;;;;;4971970;28;20122;-85
2021/03/25 12:12:01;;;;;;;7.97;2.78;;;18.50;34.20;;;;;;4978638;28;20019;-84
2021/03/25 12:14:27;;;;;;;6.35;1.95;;;18.60;33.90;;;;;;4976295;28;20031;-85
2021/03/25 12:16:56;;;;;;;2.53;1.55;;;18.70;33.60;;;;;;4963409;28;20387;-84
2021/03/25 12:19:22;;;;;;;3.65;2.03;;;18.70;33.50;;;;;;4963247;28;20023;-84
2021/03/25 12:21:48;;;;;;;7.60;1.92;;;18.80;33.50;;;;;;4968545;28;20102;-84
2021/03/25 12:24:14;;;;;;;3.83;1.60;;;18.80;33.50;;;;;;4969961;28;20391;-84
2021/03/25 12:26:40;;;;;;;4.65;2.08;;;18.90;33.50;;;;;;4967386;28;20041;-84
2021/03/25 12:29:06;;;;;;;6.13;1.52;;;19.00;33.10;;;;;;4972751;28;20054;-84
2021/03/25 12:31:36;;;;;;;2.40;1.70;;;19.00;32.90;;;;;;4973786;28;20049;-85
2021/03/25 12:34:03;;;;;;;1.77;1.42;;;19.10;32.60;;;;;;4972546;28;20387;-85
2021/03/25 12:36:29;;;;;;;6.68;1.73;;;19.10;32.60;;;;;;4973407;28;20042;-85
2021/03/25 12:38:55;;;;;;;6.15;1.90;;;19.20;32.40;;;;;;4970654;28;20161;-84
2021/03/25 12:41:34;;;;;;;5.60;1.63;;;19.30;32.00;;;;;;4972510;28;20117;-85
2021/03/25 12:44:00;;;;;;;5.63;2.13;;;19.30;32.20;;;;;;4968587;28;20062;-84
2021/03/25 12:46:26;;;;;;;4.78;1.70;;;19.30;32.30;;;;;;4964100;28;20563;-84
2021/03/25 12:48:52;;;;;;;4.03;1.75;;;19.40;32.10;;;;;;4976072;28;20027;-85
2021/03/25 12:51:18;;;;;;;5.05;1.75;;;19.40;31.80;;;;;;4955862;28;20061;-85
2021/03/25 12:53:45;;;;;;;5.18;1.42;;;19.40;31.80;;;;;;4971818;28;20034;-84
2021/03/25 12:56:27;;;;;;;2.88;1.75;;;19.50;31.80;;;;;;4973414;28;20027;-85
2021/03/25 12:58:55;;;;;;;6.77;3.07;;;19.40;31.10;;;;;;4981355;28;20023;-85
2021/03/25 13:01:24;;;;;;;47.35;24.55;;;19.40;31.30;;;;;;4971849;28;20638;-85
2021/03/25 13:03:50;;;;;;;6.47;4.03;;;19.40;31.30;;;;;;4964601;28;20026;-85
2021/03/25 13:06:17;;;;;;;9.50;1.98;;;19.40;31.20;;;;;;4969429;28;20051;-85
2021/03/25 13:08:43;;;;;;;4.25;1.95;;;19.40;30.90;;;;;;4971068;28;20022;-85
2021/03/25 13:11:12;;;;;;;3.80;1.88;;;19.50;30.60;;;;;;4967719;28;20034;-85
2021/03/25 13:13:38;;;;;;;5.10;1.77;;;19.40;30.60;;;;;;4975679;28;20122;-85
2021/03/25 13:16:04;;;;;;;5.97;5.38;;;19.40;30.60;;;;;;4974764;28;20483;-84
2021/03/25 13:18:30;;;;;;;4.88;4.13;;;19.40;30.40;;;;;;4975038;28;20035;-84
2021/03/25 13:20:56;;;;;;;6.03;4.07;;;19.40;30.30;;;;;;4975241;28;20031;-85
2021/03/25 13:23:23;;;;;;;11.20;4.20;;;19.40;30.30;;;;;;4973706;28;20034;-84
2021/03/25 13:25:51;;;;;;;4.80;3.15;;;19.40;30.30;;;;;;4974980;28;20031;-85
2021/03/25 13:28:18;;;;;;;4.40;2.28;;;19.40;30.20;;;;;;4973761;28;20033;-85
2021/03/25 13:30:44;;;;;;;5.30;2.20;;;19.50;30.20;;;;;;4971553;28;20034;-85
2021/03/25 13:33:11;;;;;;;9.07;3.58;;;19.50;30.10;;;;;;4959284;28;20076;-85